Aglasan, Turkey

5:17 AM +03 on January 21, 2017 (GMT +0300)
MAYCEV | | Change Station

Elev 768 ft 40.22 °N, 29.50 °E | Updated 9 minutes ago

Mostly Cloudy
Mostly Cloudy
35.8 °F
Feels Like 36 °F
N
1.0
Wind Variable Wind from NNE
Gusts 3.0 mph

Today
High -- | Low -- °F
--% Chance of Precip.
Yesterday
High -- | Low -- °F
Precip. -- in
Pressure 30.39 in
Visibility 4.3 miles
Clouds Scattered Clouds 3000 ft
Windchill 36 °F
Dew Point 33 °F
Humidity 90%
Rainfall 0.00 in
Snow Depth Not available.
8:20 AM 6:08 PM
Last Quarter, 39% visible
METAR LTBR 210150Z 06004KT 7000 SCT030 02/00 Q1029 BECMG TL0300 4500 BR RMK RWY07 06005KT
Pressure 30.39 in
Visibility 4.3 miles
Clouds Scattered Clouds 3000 ft
Windchill 36 °F
Dew Point 33 °F
Humidity 90%
Rainfall 0.00 in
Snow Depth Not available.
8:20 AM 6:08 PM
Last Quarter, 39% visible
METAR LTBR 210150Z 06004KT 7000 SCT030 02/00 Q1029 BECMG TL0300 4500 BR RMK RWY07 06005KT

Get Your Daily Forecast Email!

Thanks for signing up!

Be on the lookout for a verification email in your inbox.

You'll start receiving the daily forecast at 8 AM.

×

10-Day Weather Forecast

×

Almanac

Astronomy

Jan. 21, 2017 Rise Set
Actual Time
Civil Twilight
Nautical Twilight
Astronomical Twilight
Moon
Length of Visible Light
Length of Day
Tomorrow will be .
, % of the Moon is Illuminated

Today's Extremes

Country Highs Country Lows

Community

WunderPhotos

Upload Photos

1,962,540 photos uploaded!

WunderBlog® & News

Nearby

Air Quality

  Air Quality AQ Index Pollutant
Not available.

Snow Depth

Station Depth Elevation

Earthquake Activity

City Distance Mag. Time & Date
Minimum magnitude displayed is 2.5.

Coastal Water Temperatures

Place Temperature

Stations

Nearby Weather Stations

Station Location Temp. Windchill Dew Point Humidity Wind Precip. Elev Updated Type